sensor_id;sensor_type;location;lat;lon;timestamp;P1;durP1;ratioP1;P2;durP2;ratioP2
62037;SDS011;47991;42.974;12.082;2022-10-18T00:01:13;9.80;;;5.60;;
62037;SDS011;47991;42.974;12.082;2022-10-18T00:21:35;18.10;;;6.20;;
62037;SDS011;47991;42.974;12.082;2022-10-18T00:28:30;11.30;;;6.30;;
62037;SDS011;47991;42.974;12.082;2022-10-18T00:35:19;12.10;;;6.20;;
62037;SDS011;47991;42.974;12.082;2022-10-18T00:46:34;10.70;;;5.90;;
62037;SDS011;47991;42.974;12.082;2022-10-18T00:53:15;10.60;;;5.90;;
62037;SDS011;47991;42.974;12.082;2022-10-18T00:59:59;12.90;;;6.40;;
62037;SDS011;47991;42.974;12.082;2022-10-18T01:33:52;14.20;;;7.20;;
62037;SDS011;47991;42.974;12.082;2022-10-18T01:45:14;10.60;;;6.10;;
62037;SDS011;47991;42.974;12.082;2022-10-18T01:55:09;11.90;;;6.40;;
62037;SDS011;47991;42.974;12.082;2022-10-18T02:16:18;11.40;;;6.50;;
62037;SDS011;47991;42.974;12.082;2022-10-18T02:27:33;11.00;;;6.00;;
62037;SDS011;47991;42.974;12.082;2022-10-18T02:45:39;11.70;;;6.50;;
62037;SDS011;47991;42.974;12.082;2022-10-18T02:56:08;14.50;;;6.70;;
62037;SDS011;47991;42.974;12.082;2022-10-18T03:07:12;12.70;;;7.50;;
62037;SDS011;47991;42.974;12.082;2022-10-18T03:18:20;11.70;;;6.40;;
62037;SDS011;47991;42.974;12.082;2022-10-18T03:25:07;12.50;;;6.90;;
62037;SDS011;47991;42.974;12.082;2022-10-18T03:31:42;11.40;;;6.10;;
62037;SDS011;47991;42.974;12.082;2022-10-18T03:38:23;12.10;;;6.60;;
62037;SDS011;47991;42.974;12.082;2022-10-18T03:45:10;16.30;;;6.80;;
62037;SDS011;47991;42.974;12.082;2022-10-18T03:51:57;12.10;;;7.20;;
62037;SDS011;47991;42.974;12.082;2022-10-18T03:58:45;14.50;;;7.50;;
62037;SDS011;47991;42.974;12.082;2022-10-18T04:05:33;12.20;;;6.70;;
62037;SDS011;47991;42.974;12.082;2022-10-18T04:12:22;10.50;;;6.40;;
62037;SDS011;47991;42.974;12.082;2022-10-18T04:23:25;15.50;;;7.70;;
62037;SDS011;47991;42.974;12.082;2022-10-18T04:34:20;11.10;;;7.20;;
62037;SDS011;47991;42.974;12.082;2022-10-18T04:41:07;12.20;;;6.90;;
62037;SDS011;47991;42.974;12.082;2022-10-18T04:47:48;13.10;;;7.20;;
62037;SDS011;47991;42.974;12.082;2022-10-18T04:54:35;12.80;;;7.50;;
62037;SDS011;47991;42.974;12.082;2022-10-18T05:01:10;15.20;;;7.80;;
62037;SDS011;47991;42.974;12.082;2022-10-18T05:07:58;11.50;;;6.80;;
62037;SDS011;47991;42.974;12.082;2022-10-18T05:14:46;15.70;;;7.40;;
62037;SDS011;47991;42.974;12.082;2022-10-18T05:30:31;12.00;;;7.60;;
62037;SDS011;47991;42.974;12.082;2022-10-18T05:37:19;14.60;;;8.10;;
62037;SDS011;47991;42.974;12.082;2022-10-18T05:43:53;16.60;;;8.10;;
62037;SDS011;47991;42.974;12.082;2022-10-18T05:50:34;11.60;;;7.10;;
62037;SDS011;47991;42.974;12.082;2022-10-18T05:57:21;14.50;;;6.90;;
62037;SDS011;47991;42.974;12.082;2022-10-18T06:04:03;12.30;;;6.70;;
62037;SDS011;47991;42.974;12.082;2022-10-18T06:10:53;12.60;;;6.90;;
62037;SDS011;47991;42.974;12.082;2022-10-18T06:17:34;13.00;;;7.40;;
62037;SDS011;47991;42.974;12.082;2022-10-18T06:28:57;11.00;;;6.50;;
62037;SDS011;47991;42.974;12.082;2022-10-18T06:47:06;14.60;;;6.40;;
62037;SDS011;47991;42.974;12.082;2022-10-18T06:53:55;11.40;;;6.10;;
62037;SDS011;47991;42.974;12.082;2022-10-18T07:05:04;10.80;;;5.90;;
62037;SDS011;47991;42.974;12.082;2022-10-18T07:11:39;16.10;;;7.20;;
62037;SDS011;47991;42.974;12.082;2022-10-18T07:18:21;17.30;;;8.10;;
62037;SDS011;47991;42.974;12.082;2022-10-18T07:29:37;16.90;;;7.50;;
62037;SDS011;47991;42.974;12.082;2022-10-18T07:36:26;12.30;;;7.60;;
62037;SDS011;47991;42.974;12.082;2022-10-18T07:43:12;11.20;;;5.80;;
62037;SDS011;47991;42.974;12.082;2022-10-18T07:49:59;16.00;;;6.60;;
62037;SDS011;47991;42.974;12.082;2022-10-18T08:01:08;11.10;;;6.50;;
62037;SDS011;47991;42.974;12.082;2022-10-18T08:07:56;12.10;;;6.60;;
62037;SDS011;47991;42.974;12.082;2022-10-18T08:14:43;12.50;;;7.10;;
62037;SDS011;47991;42.974;12.082;2022-10-18T08:21:29;11.10;;;6.70;;
62037;SDS011;47991;42.974;12.082;2022-10-18T08:32:53;10.20;;;6.20;;
62037;SDS011;47991;42.974;12.082;2022-10-18T08:39:40;10.00;;;6.00;;
62037;SDS011;47991;42.974;12.082;2022-10-18T08:46:27;10.00;;;6.30;;
62037;SDS011;47991;42.974;12.082;2022-10-18T08:53:19;15.40;;;6.70;;
62037;SDS011;47991;42.974;12.082;2022-10-18T09:16:01;10.20;;;6.00;;
62037;SDS011;47991;42.974;12.082;2022-10-18T09:27:21;8.90;;;5.20;;
62037;SDS011;47991;42.974;12.082;2022-10-18T09:43:17;9.70;;;5.60;;
62037;SDS011;47991;42.974;12.082;2022-10-18T15:29:20;9.60;;;3.80;;
62037;SDS011;47991;42.974;12.082;2022-10-18T15:31:50;13.20;;;4.20;;
62037;SDS011;47991;42.974;12.082;2022-10-18T15:34:22;6.60;;;3.70;;
62037;SDS011;47991;42.974;12.082;2022-10-18T15:36:55;7.40;;;3.80;;
62037;SDS011;47991;42.974;12.082;2022-10-18T15:39:24;7.70;;;3.50;;
62037;SDS011;47991;42.974;12.082;2022-10-18T15:44:29;9.70;;;4.40;;
62037;SDS011;47991;42.974;12.082;2022-10-18T15:47:15;7.40;;;3.80;;
62037;SDS011;47991;42.974;12.082;2022-10-18T15:49:50;8.80;;;4.10;;
62037;SDS011;47991;42.974;12.082;2022-10-18T15:54:47;9.30;;;4.50;;
62037;SDS011;47991;42.974;12.082;2022-10-18T15:57:14;9.30;;;4.00;;
62037;SDS011;47991;42.974;12.082;2022-10-18T15:59:51;8.40;;;3.60;;
62037;SDS011;47991;42.974;12.082;2022-10-18T16:02:22;7.60;;;4.20;;
62037;SDS011;47991;42.974;12.082;2022-10-18T16:04:50;9.80;;;4.30;;
62037;SDS011;47991;42.974;12.082;2022-10-18T16:07:19;6.70;;;3.50;;
62037;SDS011;47991;42.974;12.082;2022-10-18T16:09:47;7.70;;;3.80;;
62037;SDS011;47991;42.974;12.082;2022-10-18T16:12:14;8.20;;;3.80;;
62037;SDS011;47991;42.974;12.082;2022-10-18T16:14:41;7.70;;;4.00;;
62037;SDS011;47991;42.974;12.082;2022-10-18T16:17:09;7.70;;;3.70;;
62037;SDS011;47991;42.974;12.082;2022-10-18T16:19:42;7.90;;;4.10;;
62037;SDS011;47991;42.974;12.082;2022-10-18T16:22:10;8.00;;;3.90;;
62037;SDS011;47991;42.974;12.082;2022-10-18T16:24:39;8.60;;;4.20;;
62037;SDS011;47991;42.974;12.082;2022-10-18T16:27:09;8.40;;;4.20;;
62037;SDS011;47991;42.974;12.082;2022-10-18T16:29:37;7.20;;;3.90;;
62037;SDS011;47991;42.974;12.082;2022-10-18T16:32:04;17.80;;;4.20;;
62037;SDS011;47991;42.974;12.082;2022-10-18T16:34:31;7.90;;;4.20;;
62037;SDS011;47991;42.974;12.082;2022-10-18T16:36:58;9.40;;;4.00;;
62037;SDS011;47991;42.974;12.082;2022-10-18T16:39:26;9.10;;;4.60;;
62037;SDS011;47991;42.974;12.082;2022-10-18T16:41:55;8.80;;;4.00;;
62037;SDS011;47991;42.974;12.082;2022-10-18T16:44:22;8.60;;;4.50;;
62037;SDS011;47991;42.974;12.082;2022-10-18T16:46:49;8.40;;;4.30;;
62037;SDS011;47991;42.974;12.082;2022-10-18T16:49:20;11.30;;;5.00;;
62037;SDS011;47991;42.974;12.082;2022-10-18T16:51:49;9.70;;;4.90;;
62037;SDS011;47991;42.974;12.082;2022-10-18T16:54:17;11.10;;;5.00;;
62037;SDS011;47991;42.974;12.082;2022-10-18T16:56:45;9.20;;;5.00;;
62037;SDS011;47991;42.974;12.082;2022-10-18T16:59:19;11.70;;;4.80;;
62037;SDS011;47991;42.974;12.082;2022-10-18T17:01:50;8.40;;;4.10;;
62037;SDS011;47991;42.974;12.082;2022-10-18T17:04:17;9.70;;;4.60;;
62037;SDS011;47991;42.974;12.082;2022-10-18T17:06:45;7.50;;;4.20;;
62037;SDS011;47991;42.974;12.082;2022-10-18T17:09:14;10.00;;;3.90;;
62037;SDS011;47991;42.974;12.082;2022-10-18T17:11:42;8.90;;;4.30;;
62037;SDS011;47991;42.974;12.082;2022-10-18T17:14:09;8.40;;;4.50;;
62037;SDS011;47991;42.974;12.082;2022-10-18T17:16:37;8.00;;;4.50;;
62037;SDS011;47991;42.974;12.082;2022-10-18T17:19:05;9.20;;;4.10;;
62037;SDS011;47991;42.974;12.082;2022-10-18T17:21:34;8.60;;;4.10;;
62037;SDS011;47991;42.974;12.082;2022-10-18T17:24:01;8.90;;;4.00;;
62037;SDS011;47991;42.974;12.082;2022-10-18T17:26:31;19.60;;;4.00;;
62037;SDS011;47991;42.974;12.082;2022-10-18T17:29:01;9.10;;;4.40;;
62037;SDS011;47991;42.974;12.082;2022-10-18T17:31:32;8.50;;;4.00;;
62037;SDS011;47991;42.974;12.082;2022-10-18T17:34:03;10.30;;;4.70;;
62037;SDS011;47991;42.974;12.082;2022-10-18T17:36:30;10.40;;;4.00;;
62037;SDS011;47991;42.974;12.082;2022-10-18T17:38:59;9.40;;;4.30;;
62037;SDS011;47991;42.974;12.082;2022-10-18T17:41:27;9.60;;;4.00;;
62037;SDS011;47991;42.974;12.082;2022-10-18T17:44:10;10.00;;;4.50;;
62037;SDS011;47991;42.974;12.082;2022-10-18T17:46:37;8.00;;;4.30;;
62037;SDS011;47991;42.974;12.082;2022-10-18T17:49:05;8.80;;;4.30;;
62037;SDS011;47991;42.974;12.082;2022-10-18T17:51:32;8.80;;;4.00;;
62037;SDS011;47991;42.974;12.082;2022-10-18T17:54:00;10.10;;;4.40;;
62037;SDS011;47991;42.974;12.082;2022-10-18T17:56:27;7.40;;;3.60;;
62037;SDS011;47991;42.974;12.082;2022-10-18T17:58:59;8.70;;;4.10;;
62037;SDS011;47991;42.974;12.082;2022-10-18T18:01:28;9.70;;;4.30;;
62037;SDS011;47991;42.974;12.082;2022-10-18T18:03:57;9.20;;;3.90;;
62037;SDS011;47991;42.974;12.082;2022-10-18T18:09:02;9.30;;;3.70;;
62037;SDS011;47991;42.974;12.082;2022-10-18T18:11:33;7.30;;;4.10;;
62037;SDS011;47991;42.974;12.082;2022-10-18T18:14:03;7.70;;;3.70;;
62037;SDS011;47991;42.974;12.082;2022-10-18T18:16:36;10.90;;;4.30;;
62037;SDS011;47991;42.974;12.082;2022-10-18T18:19:05;7.90;;;3.90;;
62037;SDS011;47991;42.974;12.082;2022-10-18T18:21:33;7.40;;;3.90;;
62037;SDS011;47991;42.974;12.082;2022-10-18T18:24:01;8.20;;;3.70;;
62037;SDS011;47991;42.974;12.082;2022-10-18T18:26:33;10.80;;;3.90;;
62037;SDS011;47991;42.974;12.082;2022-10-18T18:29:01;8.20;;;4.30;;
62037;SDS011;47991;42.974;12.082;2022-10-18T18:31:29;7.40;;;3.90;;
62037;SDS011;47991;42.974;12.082;2022-10-18T18:33:57;7.50;;;3.50;;
62037;SDS011;47991;42.974;12.082;2022-10-18T18:36:25;8.10;;;4.00;;
62037;SDS011;47991;42.974;12.082;2022-10-18T18:38:58;8.50;;;3.70;;
62037;SDS011;47991;42.974;12.082;2022-10-18T18:41:27;7.30;;;3.40;;
62037;SDS011;47991;42.974;12.082;2022-10-18T18:43:57;7.80;;;4.00;;
62037;SDS011;47991;42.974;12.082;2022-10-18T18:46:27;9.10;;;3.80;;
62037;SDS011;47991;42.974;12.082;2022-10-18T18:48:56;9.50;;;4.00;;
62037;SDS011;47991;42.974;12.082;2022-10-18T18:51:24;13.90;;;4.80;;
62037;SDS011;47991;42.974;12.082;2022-10-18T18:53:51;10.10;;;4.90;;
62037;SDS011;47991;42.974;12.082;2022-10-18T18:56:20;11.40;;;4.20;;
62037;SDS011;47991;42.974;12.082;2022-10-18T18:58:49;8.30;;;3.90;;
62037;SDS011;47991;42.974;12.082;2022-10-18T19:01:22;12.10;;;3.60;;
62037;SDS011;47991;42.974;12.082;2022-10-18T19:03:51;7.70;;;3.30;;
62037;SDS011;47991;42.974;12.082;2022-10-18T19:06:21;9.30;;;3.70;;
62037;SDS011;47991;42.974;12.082;2022-10-18T19:08:51;7.90;;;3.80;;
62037;SDS011;47991;42.974;12.082;2022-10-18T19:11:30;8.90;;;3.30;;
62037;SDS011;47991;42.974;12.082;2022-10-18T19:13:59;7.90;;;3.50;;
62037;SDS011;47991;42.974;12.082;2022-10-18T19:16:32;8.10;;;3.80;;
62037;SDS011;47991;42.974;12.082;2022-10-18T19:19:05;12.90;;;4.60;;
62037;SDS011;47991;42.974;12.082;2022-10-18T19:21:35;8.60;;;3.70;;
62037;SDS011;47991;42.974;12.082;2022-10-18T19:24:04;8.10;;;3.60;;
62037;SDS011;47991;42.974;12.082;2022-10-18T19:26:37;11.50;;;3.80;;
62037;SDS011;47991;42.974;12.082;2022-10-18T19:29:14;7.50;;;3.60;;
62037;SDS011;47991;42.974;12.082;2022-10-18T19:31:53;8.70;;;3.40;;
62037;SDS011;47991;42.974;12.082;2022-10-18T19:34:23;19.90;;;5.20;;
62037;SDS011;47991;42.974;12.082;2022-10-18T19:36:52;9.20;;;4.00;;
62037;SDS011;47991;42.974;12.082;2022-10-18T19:39:20;12.70;;;4.10;;
62037;SDS011;47991;42.974;12.082;2022-10-18T19:42:00;7.20;;;3.00;;
62037;SDS011;47991;42.974;12.082;2022-10-18T19:44:30;10.40;;;4.00;;
62037;SDS011;47991;42.974;12.082;2022-10-18T19:46:59;8.10;;;3.30;;
62037;SDS011;47991;42.974;12.082;2022-10-18T19:49:28;9.30;;;3.80;;
62037;SDS011;47991;42.974;12.082;2022-10-18T19:51:56;11.30;;;4.00;;
62037;SDS011;47991;42.974;12.082;2022-10-18T19:54:24;10.90;;;4.70;;
62037;SDS011;47991;42.974;12.082;2022-10-18T19:56:52;10.00;;;4.00;;
62037;SDS011;47991;42.974;12.082;2022-10-18T19:59:19;11.00;;;4.80;;
62037;SDS011;47991;42.974;12.082;2022-10-18T20:01:48;15.40;;;5.20;;
62037;SDS011;47991;42.974;12.082;2022-10-18T20:04:16;9.80;;;3.90;;
62037;SDS011;47991;42.974;12.082;2022-10-18T20:06:44;9.80;;;3.80;;
62037;SDS011;47991;42.974;12.082;2022-10-18T20:09:11;8.00;;;3.30;;
62037;SDS011;47991;42.974;12.082;2022-10-18T20:11:41;7.10;;;3.30;;
62037;SDS011;47991;42.974;12.082;2022-10-18T20:14:08;8.20;;;3.50;;
62037;SDS011;47991;42.974;12.082;2022-10-18T20:16:37;9.10;;;3.20;;
62037;SDS011;47991;42.974;12.082;2022-10-18T20:19:05;7.90;;;3.40;;
62037;SDS011;47991;42.974;12.082;2022-10-18T20:21:34;9.90;;;3.50;;
62037;SDS011;47991;42.974;12.082;2022-10-18T20:24:03;9.10;;;3.50;;
62037;SDS011;47991;42.974;12.082;2022-10-18T20:26:31;7.70;;;3.10;;
62037;SDS011;47991;42.974;12.082;2022-10-18T20:29:00;7.90;;;3.40;;
62037;SDS011;47991;42.974;12.082;2022-10-18T20:31:28;8.30;;;3.40;;
62037;SDS011;47991;42.974;12.082;2022-10-18T20:33:59;9.30;;;3.60;;
62037;SDS011;47991;42.974;12.082;2022-10-18T20:36:28;7.00;;;3.30;;
62037;SDS011;47991;42.974;12.082;2022-10-18T20:38:57;6.10;;;3.20;;
62037;SDS011;47991;42.974;12.082;2022-10-18T20:41:26;7.20;;;3.20;;
62037;SDS011;47991;42.974;12.082;2022-10-18T20:43:56;6.50;;;3.00;;
62037;SDS011;47991;42.974;12.082;2022-10-18T20:46:29;8.30;;;3.50;;
62037;SDS011;47991;42.974;12.082;2022-10-18T20:48:59;6.90;;;3.10;;
62037;SDS011;47991;42.974;12.082;2022-10-18T20:51:28;9.60;;;3.70;;
62037;SDS011;47991;42.974;12.082;2022-10-18T20:53:56;8.20;;;3.60;;
62037;SDS011;47991;42.974;12.082;2022-10-18T20:56:23;9.30;;;4.40;;
62037;SDS011;47991;42.974;12.082;2022-10-18T20:58:54;8.40;;;3.30;;
62037;SDS011;47991;42.974;12.082;2022-10-18T21:01:23;6.50;;;3.30;;
62037;SDS011;47991;42.974;12.082;2022-10-18T21:03:53;8.30;;;3.40;;
62037;SDS011;47991;42.974;12.082;2022-10-18T21:06:25;6.30;;;3.50;;
62037;SDS011;47991;42.974;12.082;2022-10-18T21:08:55;7.90;;;3.50;;
62037;SDS011;47991;42.974;12.082;2022-10-18T21:11:26;8.40;;;3.50;;
62037;SDS011;47991;42.974;12.082;2022-10-18T21:13:56;7.80;;;3.20;;
62037;SDS011;47991;42.974;12.082;2022-10-18T21:16:28;8.10;;;3.50;;
62037;SDS011;47991;42.974;12.082;2022-10-18T21:19:04;9.20;;;3.40;;
62037;SDS011;47991;42.974;12.082;2022-10-18T21:21:33;5.90;;;2.90;;
62037;SDS011;47991;42.974;12.082;2022-10-18T21:24:01;8.10;;;3.20;;
62037;SDS011;47991;42.974;12.082;2022-10-18T21:26:29;9.30;;;3.50;;
62037;SDS011;47991;42.974;12.082;2022-10-18T21:28:57;9.50;;;3.60;;
62037;SDS011;47991;42.974;12.082;2022-10-18T21:31:25;7.10;;;3.10;;
62037;SDS011;47991;42.974;12.082;2022-10-18T21:33:55;6.90;;;2.90;;
62037;SDS011;47991;42.974;12.082;2022-10-18T21:36:26;7.30;;;3.80;;
62037;SDS011;47991;42.974;12.082;2022-10-18T21:38:56;7.80;;;3.80;;
62037;SDS011;47991;42.974;12.082;2022-10-18T21:41:23;7.10;;;3.10;;
62037;SDS011;47991;42.974;12.082;2022-10-18T21:43:53;6.70;;;2.90;;
62037;SDS011;47991;42.974;12.082;2022-10-18T21:46:22;7.00;;;3.20;;
62037;SDS011;47991;42.974;12.082;2022-10-18T21:48:53;6.40;;;3.30;;
62037;SDS011;47991;42.974;12.082;2022-10-18T21:51:22;9.00;;;3.30;;
62037;SDS011;47991;42.974;12.082;2022-10-18T21:53:52;7.10;;;3.40;;
62037;SDS011;47991;42.974;12.082;2022-10-18T21:56:22;5.60;;;2.70;;
62037;SDS011;47991;42.974;12.082;2022-10-18T21:58:59;5.80;;;2.90;;
62037;SDS011;47991;42.974;12.082;2022-10-18T22:01:33;8.80;;;3.10;;
62037;SDS011;47991;42.974;12.082;2022-10-18T22:04:04;8.30;;;3.80;;
62037;SDS011;47991;42.974;12.082;2022-10-18T22:06:34;8.80;;;3.50;;
62037;SDS011;47991;42.974;12.082;2022-10-18T22:09:03;9.60;;;3.20;;
62037;SDS011;47991;42.974;12.082;2022-10-18T22:11:38;9.40;;;3.40;;
62037;SDS011;47991;42.974;12.082;2022-10-18T22:14:08;8.10;;;3.60;;
62037;SDS011;47991;42.974;12.082;2022-10-18T22:16:36;8.70;;;3.30;;
62037;SDS011;47991;42.974;12.082;2022-10-18T22:19:03;8.30;;;3.20;;
62037;SDS011;47991;42.974;12.082;2022-10-18T22:21:32;7.10;;;3.20;;
62037;SDS011;47991;42.974;12.082;2022-10-18T22:24:02;13.00;;;3.90;;
62037;SDS011;47991;42.974;12.082;2022-10-18T22:26:33;7.50;;;3.10;;
62037;SDS011;47991;42.974;12.082;2022-10-18T22:29:12;6.90;;;3.10;;
62037;SDS011;47991;42.974;12.082;2022-10-18T22:31:43;7.70;;;3.10;;
62037;SDS011;47991;42.974;12.082;2022-10-18T22:34:14;7.80;;;3.20;;
62037;SDS011;47991;42.974;12.082;2022-10-18T22:36:45;8.20;;;3.30;;
62037;SDS011;47991;42.974;12.082;2022-10-18T22:39:13;12.10;;;3.60;;
62037;SDS011;47991;42.974;12.082;2022-10-18T22:41:41;7.10;;;2.90;;
62037;SDS011;47991;42.974;12.082;2022-10-18T22:44:12;6.80;;;3.50;;
62037;SDS011;47991;42.974;12.082;2022-10-18T22:46:41;7.20;;;3.00;;
62037;SDS011;47991;42.974;12.082;2022-10-18T22:49:09;6.20;;;2.80;;
62037;SDS011;47991;42.974;12.082;2022-10-18T22:51:37;7.70;;;3.50;;
62037;SDS011;47991;42.974;12.082;2022-10-18T22:54:05;9.60;;;3.30;;
62037;SDS011;47991;42.974;12.082;2022-10-18T22:56:33;9.00;;;3.50;;
62037;SDS011;47991;42.974;12.082;2022-10-18T22:59:00;7.30;;;3.30;;
62037;SDS011;47991;42.974;12.082;2022-10-18T23:01:29;7.40;;;3.20;;
62037;SDS011;47991;42.974;12.082;2022-10-18T23:03:57;9.30;;;3.40;;
62037;SDS011;47991;42.974;12.082;2022-10-18T23:06:30;7.30;;;3.60;;
62037;SDS011;47991;42.974;12.082;2022-10-18T23:08:59;8.70;;;3.60;;
62037;SDS011;47991;42.974;12.082;2022-10-18T23:11:28;9.00;;;3.20;;
62037;SDS011;47991;42.974;12.082;2022-10-18T23:13:55;5.90;;;3.20;;
62037;SDS011;47991;42.974;12.082;2022-10-18T23:16:23;11.20;;;3.80;;
62037;SDS011;47991;42.974;12.082;2022-10-18T23:18:54;8.90;;;3.20;;
62037;SDS011;47991;42.974;12.082;2022-10-18T23:21:24;6.10;;;3.10;;
62037;SDS011;47991;42.974;12.082;2022-10-18T23:23:54;6.80;;;3.10;;
62037;SDS011;47991;42.974;12.082;2022-10-18T23:26:23;10.40;;;3.50;;
62037;SDS011;47991;42.974;12.082;2022-10-18T23:28:52;8.20;;;3.50;;
62037;SDS011;47991;42.974;12.082;2022-10-18T23:31:21;8.50;;;3.30;;
62037;SDS011;47991;42.974;12.082;2022-10-18T23:33:51;6.20;;;3.10;;
62037;SDS011;47991;42.974;12.082;2022-10-18T23:36:21;7.80;;;3.50;;
62037;SDS011;47991;42.974;12.082;2022-10-18T23:38:50;7.70;;;3.40;;
62037;SDS011;47991;42.974;12.082;2022-10-18T23:41:17;7.60;;;3.40;;
62037;SDS011;47991;42.974;12.082;2022-10-18T23:43:45;8.20;;;3.50;;
62037;SDS011;47991;42.974;12.082;2022-10-18T23:46:13;7.60;;;3.10;;
62037;SDS011;47991;42.974;12.082;2022-10-18T23:48:51;12.20;;;4.00;;
62037;SDS011;47991;42.974;12.082;2022-10-18T23:51:20;10.60;;;3.70;;
62037;SDS011;47991;42.974;12.082;2022-10-18T23:53:47;8.30;;;3.90;;
62037;SDS011;47991;42.974;12.082;2022-10-18T23:56:16;10.60;;;3.40;;
62037;SDS011;47991;42.974;12.082;2022-10-18T23:58:44;6.80;;;3.70;;
